Hickory Grove, South Carolina
Current Conditions -  °F | °C
As of 6:55 PM on Saturday 20 Dec 2014 (Local Time) from KDCM Reporting Station
Overcast Overcast  
Wind Chill: 45°   Ceiling: 2100
Heat Index: 45°   Visibility: 10mi
Dew Point: 37°   Wind: 3mph
Humidity: 76%   Direction: 60°ENE
Pressure: 30.23"   Gusts: NA
Location:  34.98°N, 81.42°W
Report Text: KDCM 202355Z AUTO 06003KT 10SM BKN021 OVC042 07/03 A3023 RMK AO2
Loading
Personal Weather Stations






























Interactive Weather Map New forecast layout! Learn more

10-Day Weather Forecast

Advertisements
Track Severe Weather on mobile